Time;durP1;ratioP1;P1;durP2;ratioP2;P2;SDS_P1;SDS_P2;PMS_P1;PMS_P2;Temp;Humidity;BMP_temperature;BMP_pressure;BME280_temperature;BME280_humidity;BME280_pressure;Samples;Min_cycle;Max_cycle;Signal;HPM_P1;HPM_P2
2023/04/09 00:01:49;;;;;;;0.55;0.55;;;17.90;39.90;;;;;;6311419;22;20148;-82
2023/04/09 00:04:15;;;;;;;0.70;0.60;;;17.90;39.90;;;;;;6311801;22;20135;-82
2023/04/09 00:06:41;;;;;;;0.50;0.50;;;17.90;39.90;;;;;;6339339;22;20132;-82
2023/04/09 00:09:07;;;;;;;0.63;0.63;;;17.90;40.00;;;;;;6339189;22;20163;-82
2023/04/09 00:11:33;;;;;;;0.70;0.70;;;17.90;40.00;;;;;;6339403;22;20466;-82
2023/04/09 00:13:59;;;;;;;0.77;0.70;;;17.90;40.00;;;;;;6339011;22;20198;-82
2023/04/09 00:16:24;;;;;;;0.88;0.60;;;17.90;40.00;;;;;;6339665;22;20144;-82
2023/04/09 00:18:51;;;;;;;0.85;0.70;;;17.90;40.10;;;;;;6339160;22;20269;-81
2023/04/09 00:21:17;;;;;;;0.52;0.52;;;17.90;40.10;;;;;;6339247;22;20127;-82
2023/04/09 00:23:43;;;;;;;0.60;0.60;;;17.90;40.10;;;;;;6339347;22;20632;-83
2023/04/09 00:26:09;;;;;;;0.60;0.60;;;17.90;40.00;;;;;;6339302;22;20631;-81
2023/04/09 00:28:35;;;;;;;1.85;0.70;;;17.90;40.10;;;;;;6339385;22;20646;-82
2023/04/09 00:31:01;;;;;;;0.88;0.77;;;17.90;40.10;;;;;;6339031;22;20467;-82
2023/04/09 00:33:27;;;;;;;0.60;0.50;;;17.90;40.10;;;;;;6339267;22;20138;-82
2023/04/09 00:35:53;;;;;;;1.13;0.63;;;17.90;40.10;;;;;;6339271;22;20136;-82
2023/04/09 00:38:19;;;;;;;0.70;0.70;;;17.80;40.10;;;;;;6311640;22;20158;-82
2023/04/09 00:40:49;;;;;;;1.02;0.57;;;17.90;40.10;;;;;;6339113;22;20184;-82
2023/04/09 00:43:15;;;;;;;1.10;0.80;;;17.90;40.20;;;;;;6339481;22;20142;-81
2023/04/09 00:45:41;;;;;;;1.35;0.98;;;17.90;40.20;;;;;;6339146;22;20473;-82
2023/04/09 00:48:07;;;;;;;0.63;0.63;;;17.80;40.20;;;;;;6339149;22;20586;-81
2023/04/09 00:50:33;;;;;;;0.98;0.88;;;17.90;40.20;;;;;;6339071;22;20139;-82
2023/04/09 00:52:59;;;;;;;0.80;0.80;;;17.80;40.30;;;;;;6339082;22;20132;-82
2023/04/09 00:55:25;;;;;;;1.10;0.70;;;17.80;40.20;;;;;;6339284;22;20140;-82
2023/04/09 00:57:51;;;;;;;0.80;0.70;;;17.80;40.20;;;;;;6338949;22;20462;-82
2023/04/09 01:00:17;;;;;;;0.70;0.70;;;17.80;40.30;;;;;;6338955;22;20139;-82
2023/04/09 01:02:43;;;;;;;0.95;0.68;;;17.80;40.30;;;;;;6339112;22;20571;-82
2023/04/09 01:05:10;;;;;;;1.70;0.80;;;17.90;40.20;;;;;;6338898;22;20253;-82
2023/04/09 01:07:53;;;;;;;0.75;0.70;;;17.90;40.30;;;;;;6339224;22;20167;-82
2023/04/09 01:10:29;;;;;;;0.80;0.70;;;17.80;40.30;;;;;;6339222;22;20265;-82
2023/04/09 01:13:32;;;;;;;0.90;0.90;;;17.80;40.30;;;;;;6311545;22;20190;-82
2023/04/09 01:16:00;;;;;;;0.90;0.73;;;17.80;40.40;;;;;;6338968;22;20458;-82
2023/04/09 01:18:37;;;;;;;0.90;0.80;;;17.80;40.40;;;;;;6311419;22;20218;-81
2023/04/09 01:21:08;;;;;;;1.38;0.60;;;17.80;40.30;;;;;;6339350;22;20167;-82
2023/04/09 01:23:46;;;;;;;0.60;0.60;;;17.80;40.40;;;;;;6312990;22;20178;-81
2023/04/09 01:26:43;;;;;;;1.23;0.88;;;17.80;40.40;;;;;;6313668;22;20131;-81
2023/04/09 01:29:09;;;;;;;0.98;0.80;;;17.90;40.40;;;;;;6340596;22;20208;-82
2023/04/09 01:31:37;;;;;;;0.75;0.70;;;17.80;40.40;;;;;;6340730;22;20151;-82
2023/04/09 01:34:03;;;;;;;0.70;0.70;;;17.80;40.50;;;;;;6340487;22;20128;-82
2023/04/09 01:36:30;;;;;;;1.05;0.93;;;17.80;40.60;;;;;;6313390;22;20150;-82
2023/04/09 01:38:56;;;;;;;0.68;0.60;;;17.80;40.50;;;;;;6341035;22;20143;-81
2023/04/09 01:41:22;;;;;;;0.65;0.65;;;17.80;40.60;;;;;;6340802;22;20127;-81
2023/04/09 01:43:49;;;;;;;0.73;0.70;;;17.80;40.60;;;;;;6340507;22;20622;-82
2023/04/09 01:46:16;;;;;;;0.98;0.70;;;17.80;40.50;;;;;;6340866;22;20571;-82
2023/04/09 01:48:42;;;;;;;0.60;0.60;;;17.80;40.60;;;;;;6313539;22;20171;-82
2023/04/09 01:51:08;;;;;;;0.80;0.70;;;17.80;40.60;;;;;;6340447;22;20154;-82
2023/04/09 01:53:35;;;;;;;0.80;0.80;;;17.80;40.60;;;;;;6312905;22;20132;-82
2023/04/09 01:56:01;;;;;;;1.58;0.80;;;17.80;40.70;;;;;;6340619;22;20138;-81
2023/04/09 01:58:27;;;;;;;1.42;0.82;;;17.80;40.70;;;;;;6340464;22;20184;-82
2023/04/09 02:00:59;;;;;;;0.70;0.70;;;17.80;40.70;;;;;;6340289;22;20470;-81
2023/04/09 02:03:29;;;;;;;0.70;0.70;;;17.80;40.60;;;;;;6312977;22;20143;-82
2023/04/09 02:06:00;;;;;;;0.70;0.70;;;17.80;40.70;;;;;;6312877;22;20151;-81
2023/04/09 02:08:25;;;;;;;0.90;0.80;;;17.80;40.70;;;;;;6312399;22;20221;-82
2023/04/09 02:10:55;;;;;;;0.95;0.70;;;17.80;40.70;;;;;;6307569;22;20128;-81
2023/04/09 02:13:21;;;;;;;0.95;0.80;;;17.80;40.80;;;;;;6333335;22;20664;-82
2023/04/09 02:15:47;;;;;;;0.68;0.68;;;17.80;40.70;;;;;;6313587;22;20441;-81
2023/04/09 02:18:22;;;;;;;1.30;0.80;;;17.80;40.80;;;;;;6313200;22;20166;-82
2023/04/09 02:20:48;;;;;;;0.63;0.60;;;17.80;40.70;;;;;;6340610;22;20469;-82
2023/04/09 02:23:15;;;;;;;0.95;0.70;;;17.80;40.80;;;;;;6312843;22;20571;-82
2023/04/09 02:25:41;;;;;;;0.70;0.60;;;17.70;40.70;;;;;;6340478;22;20136;-82
2023/04/09 02:28:07;;;;;;;0.95;0.90;;;17.70;40.60;;;;;;6312465;22;20609;-81
2023/04/09 02:30:33;;;;;;;0.70;0.70;;;17.80;40.80;;;;;;6340225;22;20131;-82
2023/04/09 02:32:59;;;;;;;1.33;0.73;;;17.80;40.80;;;;;;6340061;22;20138;-82
2023/04/09 02:35:25;;;;;;;0.85;0.77;;;17.70;40.80;;;;;;6313783;22;20143;-82
2023/04/09 02:37:51;;;;;;;1.42;0.80;;;17.80;40.80;;;;;;6340079;22;20139;-81
2023/04/09 02:40:17;;;;;;;0.98;0.73;;;17.70;40.80;;;;;;6313049;22;20146;-82
2023/04/09 02:42:43;;;;;;;0.65;0.63;;;17.80;40.90;;;;;;6312669;22;20162;-82
2023/04/09 02:45:09;;;;;;;1.20;0.90;;;17.70;40.80;;;;;;6340276;22;20138;-82
2023/04/09 02:47:35;;;;;;;0.65;0.60;;;17.80;41.00;;;;;;6340222;22;20171;-81
2023/04/09 02:50:01;;;;;;;0.80;0.80;;;17.70;40.90;;;;;;6340017;22;20135;-82
2023/04/09 02:52:27;;;;;;;0.73;0.60;;;17.70;40.90;;;;;;6340254;22;20132;-81
2023/04/09 02:54:53;;;;;;;0.70;0.70;;;17.70;40.80;;;;;;6312152;22;20143;-82
2023/04/09 02:57:18;;;;;;;0.68;0.68;;;17.70;41.00;;;;;;6312835;22;20184;-82
2023/04/09 02:59:45;;;;;;;0.80;0.70;;;17.70;41.00;;;;;;6340245;22;20154;-82
2023/04/09 03:02:11;;;;;;;1.02;0.73;;;17.70;41.00;;;;;;6340077;22;20135;-82
2023/04/09 03:04:38;;;;;;;1.10;0.70;;;17.70;41.00;;;;;;6340142;22;20155;-82
2023/04/09 03:07:04;;;;;;;1.20;0.80;;;17.70;41.00;;;;;;6312372;22;20132;-82
2023/04/09 03:09:30;;;;;;;0.68;0.65;;;17.70;41.00;;;;;;6339846;22;20215;-81
2023/04/09 03:11:57;;;;;;;0.60;0.60;;;17.70;41.00;;;;;;6339818;22;20131;-82
2023/04/09 03:14:23;;;;;;;1.00;0.88;;;17.70;40.90;;;;;;6339964;22;20294;-81
2023/04/09 03:16:49;;;;;;;1.15;0.82;;;17.70;41.00;;;;;;6340084;22;20138;-82
2023/04/09 03:19:15;;;;;;;1.00;0.70;;;17.70;41.10;;;;;;6312635;22;20210;-82
2023/04/09 03:21:41;;;;;;;1.27;0.70;;;17.70;41.10;;;;;;6339907;22;20458;-82
2023/04/09 03:24:07;;;;;;;1.20;0.85;;;17.70;41.10;;;;;;6339816;22;20136;-82
2023/04/09 03:26:36;;;;;;;0.85;0.70;;;17.70;41.20;;;;;;6339503;22;20159;-81
2023/04/09 03:29:03;;;;;;;1.17;0.80;;;17.70;41.10;;;;;;6339374;22;20491;-82
2023/04/09 03:31:30;;;;;;;0.77;0.70;;;17.70;41.10;;;;;;6312227;22;20131;-82
2023/04/09 03:33:56;;;;;;;0.60;0.60;;;17.70;41.20;;;;;;6339552;22;20631;-82
2023/04/09 03:36:21;;;;;;;1.38;0.65;;;17.70;41.20;;;;;;6339165;22;20128;-82
2023/04/09 03:38:55;;;;;;;1.27;0.77;;;17.70;41.20;;;;;;6287637;22;20166;-81
2023/04/09 03:41:26;;;;;;;0.85;0.70;;;17.70;41.10;;;;;;6235825;22;20151;-82
2023/04/09 03:43:55;;;;;;;1.33;0.98;;;17.70;41.20;;;;;;6260982;22;20151;-82
2023/04/09 03:46:25;;;;;;;1.10;0.80;;;17.70;41.30;;;;;;6235656;22;20178;-82
2023/04/09 03:48:54;;;;;;;1.45;0.82;;;17.70;41.30;;;;;;6260416;22;20182;-81
2023/04/09 03:51:23;;;;;;;1.52;0.88;;;17.70;41.30;;;;;;6260311;22;20155;-82
2023/04/09 03:53:52;;;;;;;2.08;1.00;;;17.70;41.30;;;;;;6259767;22;20147;-82
2023/04/09 03:56:21;;;;;;;0.95;0.80;;;17.70;41.30;;;;;;6234711;22;20274;-81
2023/04/09 03:58:49;;;;;;;1.17;0.90;;;17.70;41.30;;;;;;6260675;22;20162;-82
2023/04/09 04:01:17;;;;;;;0.77;0.60;;;17.70;41.20;;;;;;6236314;22;20147;-82
2023/04/09 04:03:45;;;;;;;1.00;0.90;;;17.70;41.30;;;;;;6263058;22;20151;-82
2023/04/09 04:06:13;;;;;;;1.00;0.90;;;17.70;41.30;;;;;;6260835;22;20209;-82
2023/04/09 04:08:41;;;;;;;1.02;0.73;;;17.70;41.20;;;;;;6260610;22;20220;-81
2023/04/09 04:11:09;;;;;;;1.00;0.90;;;17.70;41.30;;;;;;6260008;22;20148;-81
2023/04/09 04:13:37;;;;;;;1.13;0.77;;;17.70;41.40;;;;;;6237942;22;20202;-82
2023/04/09 04:16:08;;;;;;;1.13;0.70;;;17.70;41.40;;;;;;6204292;22;20529;-82
2023/04/09 04:18:38;;;;;;;0.80;0.80;;;17.70;41.40;;;;;;6229595;22;20603;-82
2023/04/09 04:21:11;;;;;;;1.33;0.90;;;17.70;41.40;;;;;;6229872;22;20156;-81
2023/04/09 04:23:45;;;;;;;0.93;0.80;;;17.60;41.60;;;;;;6229727;22;20614;-82
2023/04/09 04:26:18;;;;;;;1.05;0.80;;;17.70;41.40;;;;;;6228922;22;20483;-81
2023/04/09 04:28:51;;;;;;;0.70;0.70;;;17.70;41.50;;;;;;6229086;22;20511;-82
2023/04/09 04:31:24;;;;;;;1.27;0.90;;;17.60;41.30;;;;;;6229198;22;20155;-82
2023/04/09 04:33:57;;;;;;;0.73;0.73;;;17.60;41.30;;;;;;6203954;22;20461;-81
2023/04/09 04:36:30;;;;;;;0.80;0.60;;;17.60;41.40;;;;;;6229202;22;20154;-82
2023/04/09 04:39:03;;;;;;;1.45;0.70;;;17.70;41.40;;;;;;6229695;22;20615;-82
2023/04/09 04:41:32;;;;;;;0.70;0.70;;;17.70;41.40;;;;;;6229283;22;20152;-81
2023/04/09 04:44:05;;;;;;;2.15;1.10;;;17.70;41.50;;;;;;6229310;22;20156;-81
2023/04/09 04:46:38;;;;;;;0.90;0.90;;;17.60;41.40;;;;;;6204087;22;20656;-81
2023/04/09 04:49:10;;;;;;;0.70;0.70;;;17.70;41.60;;;;;;6228809;22;20190;-81
2023/04/09 04:51:42;;;;;;;1.25;0.85;;;17.60;41.60;;;;;;6229237;22;20238;-81
2023/04/09 04:54:15;;;;;;;0.80;0.80;;;17.60;41.60;;;;;;6229144;22;20162;-81
2023/04/09 04:56:47;;;;;;;1.58;0.70;;;17.60;41.50;;;;;;6229116;22;20162;-81
2023/04/09 04:59:19;;;;;;;1.10;0.90;;;17.60;41.60;;;;;;6231024;22;20156;-82
2023/04/09 05:01:50;;;;;;;0.68;0.65;;;17.60;41.60;;;;;;6231089;22;20159;-81
2023/04/09 05:04:22;;;;;;;0.80;0.70;;;17.60;41.60;;;;;;6231245;22;20148;-82
2023/04/09 05:06:54;;;;;;;1.05;0.93;;;17.60;41.60;;;;;;6231014;22;20167;-82
2023/04/09 05:09:26;;;;;;;1.30;0.80;;;17.60;41.60;;;;;;6230937;22;20698;-81
2023/04/09 05:11:51;;;;;;;0.93;0.73;;;17.60;41.60;;;;;;6230673;22;20206;-82
2023/04/09 05:14:17;;;;;;;0.73;0.70;;;17.60;41.60;;;;;;6313258;22;20147;-82
2023/04/09 05:16:43;;;;;;;0.70;0.70;;;17.70;41.60;;;;;;6313943;22;20162;-81
2023/04/09 05:19:09;;;;;;;1.33;0.75;;;17.60;41.60;;;;;;6313437;22;20128;-81
2023/04/09 05:21:35;;;;;;;2.03;0.85;;;17.60;41.60;;;;;;6313758;22;20448;-81
2023/04/09 05:24:01;;;;;;;0.90;0.80;;;17.60;41.70;;;;;;6314299;22;20467;-82
2023/04/09 05:26:27;;;;;;;0.95;0.80;;;17.60;42.40;;;;;;6313431;22;20215;-81
2023/04/09 05:28:53;;;;;;;0.70;0.68;;;17.60;41.70;;;;;;6340826;22;20187;-81
2023/04/09 05:31:19;;;;;;;1.02;0.82;;;17.60;41.60;;;;;;6340715;22;20555;-82
2023/04/09 05:33:45;;;;;;;0.82;0.52;;;17.60;42.30;;;;;;6313408;22;20128;-81
2023/04/09 05:36:15;;;;;;;0.98;0.88;;;17.50;41.60;;;;;;6341001;22;20241;-81
2023/04/09 05:38:41;;;;;;;0.88;0.77;;;17.50;41.70;;;;;;6287564;22;20545;-82
2023/04/09 05:41:07;;;;;;;0.98;0.90;;;17.60;41.80;;;;;;6340614;22;20135;-81
2023/04/09 05:43:32;;;;;;;0.73;0.65;;;17.60;41.70;;;;;;6340765;22;20466;-82
2023/04/09 05:45:58;;;;;;;1.00;0.90;;;17.60;41.80;;;;;;6340933;22;20132;-81
2023/04/09 05:48:24;;;;;;;1.10;1.00;;;17.60;41.80;;;;;;6341221;22;20591;-82
2023/04/09 05:50:51;;;;;;;0.95;0.80;;;17.60;41.70;;;;;;6341459;22;20209;-82
2023/04/09 05:53:18;;;;;;;0.75;0.75;;;17.60;41.70;;;;;;6341059;22;20462;-82
2023/04/09 05:55:44;;;;;;;1.17;0.88;;;17.60;41.80;;;;;;6313681;22;20127;-82
2023/04/09 05:58:10;;;;;;;1.35;1.00;;;17.60;41.80;;;;;;6287912;22;20135;-82
2023/04/09 06:00:36;;;;;;;0.70;0.70;;;17.70;41.80;;;;;;6338365;22;20142;-82
2023/04/09 06:03:01;;;;;;;0.70;0.70;;;17.60;41.80;;;;;;6340477;22;20214;-81
2023/04/09 06:05:28;;;;;;;1.35;0.70;;;17.60;41.70;;;;;;6312135;22;20152;-81
2023/04/09 06:07:54;;;;;;;1.13;0.70;;;17.60;41.80;;;;;;6311806;22;20258;-81
2023/04/09 06:10:20;;;;;;;1.40;0.73;;;17.60;41.70;;;;;;6313131;22;20174;-81
2023/04/09 06:12:46;;;;;;;0.82;0.80;;;17.60;41.80;;;;;;6340275;22;20187;-81
2023/04/09 06:15:11;;;;;;;0.70;0.70;;;17.60;41.90;;;;;;6313048;22;20582;-82
2023/04/09 06:17:37;;;;;;;1.10;0.80;;;17.60;41.90;;;;;;6340652;22;20558;-81
2023/04/09 06:20:03;;;;;;;0.60;0.60;;;17.60;41.90;;;;;;6313199;22;20151;-82
2023/04/09 06:22:30;;;;;;;1.55;0.80;;;17.60;41.90;;;;;;6340257;22;20131;-82
2023/04/09 06:24:56;;;;;;;0.70;0.70;;;17.60;41.90;;;;;;6258184;22;20521;-81
2023/04/09 06:27:22;;;;;;;0.80;0.77;;;17.60;41.90;;;;;;6232958;22;20582;-82
2023/04/09 06:29:49;;;;;;;0.70;0.70;;;17.60;42.00;;;;;;6339302;22;20175;-82
2023/04/09 06:32:15;;;;;;;0.75;0.70;;;17.60;41.90;;;;;;6339743;22;20135;-82
2023/04/09 06:34:40;;;;;;;0.98;0.90;;;17.60;41.90;;;;;;6339189;22;20132;-82
2023/04/09 06:37:06;;;;;;;0.80;0.73;;;17.60;42.00;;;;;;6339092;22;20183;-81
2023/04/09 06:39:32;;;;;;;1.10;1.00;;;17.60;42.00;;;;;;6340397;22;20139;-83
2023/04/09 06:41:58;;;;;;;1.13;0.80;;;17.60;41.90;;;;;;6286778;22;20209;-81
2023/04/09 06:44:24;;;;;;;0.68;0.68;;;17.60;42.00;;;;;;6312854;22;20253;-82
2023/04/09 06:46:50;;;;;;;0.98;0.68;;;17.60;42.00;;;;;;6340340;22;20510;-81
2023/04/09 06:49:15;;;;;;;0.95;0.82;;;17.60;42.00;;;;;;6312581;22;20475;-81
2023/04/09 06:51:41;;;;;;;2.15;0.80;;;17.50;42.10;;;;;;6312762;22;20185;-81
2023/04/09 06:54:07;;;;;;;0.90;0.70;;;17.60;42.00;;;;;;6312911;22;20430;-82
2023/04/09 06:56:33;;;;;;;0.77;0.70;;;17.60;42.10;;;;;;6286834;22;20131;-82
2023/04/09 06:58:59;;;;;;;1.20;0.70;;;17.50;42.10;;;;;;6312685;22;20182;-81
2023/04/09 07:01:25;;;;;;;1.65;1.10;;;17.60;42.00;;;;;;6312529;22;20132;-83
2023/04/09 07:03:51;;;;;;;0.88;0.77;;;17.60;42.00;;;;;;6312948;22;20144;-81
2023/04/09 07:06:17;;;;;;;1.08;0.80;;;17.60;42.10;;;;;;6340706;22;20207;-82
2023/04/09 07:08:43;;;;;;;0.82;0.70;;;17.60;42.00;;;;;;6312718;22;20217;-82
2023/04/09 07:11:09;;;;;;;1.60;0.95;;;17.60;42.00;;;;;;6341793;22;20158;-82
2023/04/09 07:13:37;;;;;;;0.80;0.80;;;17.60;41.90;;;;;;6315495;22;20183;-82
2023/04/09 07:16:02;;;;;;;0.90;0.70;;;17.60;41.90;;;;;;6344082;22;20131;-82
2023/04/09 07:18:29;;;;;;;0.77;0.77;;;17.60;42.10;;;;;;6344421;22;20138;-82
2023/04/09 07:20:55;;;;;;;1.13;0.90;;;17.60;42.10;;;;;;6343126;22;20436;-82
2023/04/09 07:23:21;;;;;;;1.08;0.60;;;17.60;42.00;;;;;;6344716;22;20131;-82
2023/04/09 07:25:47;;;;;;;1.23;0.73;;;17.60;42.00;;;;;;6291030;22;20281;-81
2023/04/09 07:28:14;;;;;;;0.85;0.80;;;17.60;42.00;;;;;;6316758;22;20163;-81
2023/04/09 07:30:40;;;;;;;0.80;0.80;;;17.60;42.00;;;;;;6343194;22;20590;-82
2023/04/09 07:33:05;;;;;;;0.68;0.68;;;17.60;41.90;;;;;;6316873;22;20138;-82
2023/04/09 07:35:33;;;;;;;2.33;0.90;;;17.60;42.00;;;;;;6316669;22;20132;-81
2023/04/09 07:37:59;;;;;;;2.17;0.93;;;17.70;42.00;;;;;;6315697;22;20448;-81
2023/04/09 07:40:26;;;;;;;0.90;0.75;;;17.60;41.90;;;;;;6314228;22;20142;-80
2023/04/09 07:42:52;;;;;;;0.77;0.60;;;17.70;41.80;;;;;;6263779;22;20167;-81
2023/04/09 07:45:19;;;;;;;1.38;0.70;;;17.80;41.50;;;;;;6341821;22;20135;-82
2023/04/09 07:47:45;;;;;;;1.55;0.93;;;17.90;41.20;;;;;;6341436;22;20147;-82
2023/04/09 07:50:11;;;;;;;1.65;0.88;;;17.90;41.20;;;;;;6341412;22;20127;-81
2023/04/09 07:52:36;;;;;;;0.75;0.68;;;18.00;41.00;;;;;;6340830;22;20132;-82
2023/04/09 07:55:03;;;;;;;2.67;0.63;;;18.00;41.10;;;;;;6341381;22;20163;-81
2023/04/09 07:57:31;;;;;;;2.05;0.70;;;18.00;41.20;;;;;;6339221;22;20128;-81
2023/04/09 07:59:57;;;;;;;1.38;0.77;;;18.00;41.40;;;;;;6287085;22;20143;-82
2023/04/09 08:02:23;;;;;;;1.20;0.70;;;18.00;41.40;;;;;;6311694;22;20586;-81
2023/04/09 08:04:53;;;;;;;2.67;0.70;;;18.00;41.50;;;;;;6340074;22;20214;-83
2023/04/09 08:07:19;;;;;;;2.33;0.80;;;18.00;41.50;;;;;;6235765;22;20222;-82
2023/04/09 08:09:45;;;;;;;2.80;0.98;;;18.00;41.40;;;;;;6286868;22;20592;-82
2023/04/09 08:12:11;;;;;;;1.02;0.65;;;18.10;41.00;;;;;;6341304;22;20282;-82
2023/04/09 08:14:36;;;;;;;3.05;0.88;;;18.10;41.40;;;;;;6312377;22;20147;-81
2023/04/09 08:17:03;;;;;;;0.80;0.73;;;18.00;41.40;;;;;;6312815;22;20146;-82
2023/04/09 08:19:29;;;;;;;1.58;0.90;;;18.00;41.40;;;;;;6340747;22;20210;-82
2023/04/09 08:21:57;;;;;;;1.02;0.70;;;18.00;41.10;;;;;;6339912;22;20134;-82
2023/04/09 08:24:23;;;;;;;1.85;0.73;;;18.00;41.60;;;;;;6339584;22;20264;-81
2023/04/09 08:26:49;;;;;;;3.78;0.88;;;18.00;41.70;;;;;;6338014;22;20516;-80
2023/04/09 08:29:15;;;;;;;2.17;0.80;;;18.00;41.10;;;;;;6338584;22;20252;-81
2023/04/09 08:31:41;;;;;;;2.08;0.80;;;18.10;41.10;;;;;;6340482;22;20131;-81
2023/04/09 08:34:07;;;;;;;2.15;0.70;;;18.10;41.60;;;;;;6314914;22;20127;-81
2023/04/09 08:36:37;;;;;;;1.58;0.57;;;18.00;41.40;;;;;;6342688;22;20158;-81
2023/04/09 08:39:03;;;;;;;0.82;0.57;;;18.10;41.40;;;;;;6264065;22;20474;-82
2023/04/09 08:41:29;;;;;;;1.63;0.70;;;18.10;41.10;;;;;;6342227;22;20670;-82
2023/04/09 08:43:55;;;;;;;1.63;0.70;;;18.10;40.90;;;;;;6342061;22;20185;-82
2023/04/09 08:46:21;;;;;;;0.95;0.60;;;18.10;41.10;;;;;;6341754;22;20135;-82
2023/04/09 08:48:48;;;;;;;0.90;0.50;;;18.20;41.00;;;;;;6314551;22;20163;-81
2023/04/09 08:51:15;;;;;;;1.77;0.68;;;18.10;41.00;;;;;;6315471;22;20880;-82
2023/04/09 08:53:46;;;;;;;0.77;0.70;;;18.20;41.00;;;;;;6315032;22;20181;-81
2023/04/09 08:56:13;;;;;;;0.85;0.65;;;18.10;41.10;;;;;;6343749;22;20131;-81
2023/04/09 08:58:42;;;;;;;0.98;0.60;;;18.20;41.00;;;;;;6316169;22;20194;-81
2023/04/09 09:01:27;;;;;;;0.73;0.70;;;18.20;40.80;;;;;;6316076;22;20147;-81
2023/04/09 09:03:58;;;;;;;2.13;1.00;;;18.20;41.20;;;;;;6315069;22;20210;-81
2023/04/09 09:06:26;;;;;;;1.00;0.60;;;18.10;41.00;;;;;;6342400;22;20440;-82
2023/04/09 09:09:00;;;;;;;2.80;0.60;;;18.30;40.80;;;;;;6341756;22;20159;-81
2023/04/09 09:11:26;;;;;;;0.90;0.63;;;18.30;40.70;;;;;;6343056;22;20531;-82
2023/04/09 09:14:00;;;;;;;0.93;0.80;;;18.30;40.60;;;;;;6316051;22;20213;-81
2023/04/09 09:16:26;;;;;;;2.63;0.57;;;18.30;41.10;;;;;;6315523;22;20563;-81
2023/04/09 09:18:52;;;;;;;1.08;0.50;;;18.20;40.80;;;;;;6343021;22;20180;-81
2023/04/09 09:21:22;;;;;;;0.50;0.50;;;18.30;40.90;;;;;;6342365;22;20159;-81
2023/04/09 09:23:49;;;;;;;0.52;0.50;;;18.30;40.90;;;;;;6263194;22;20151;-81
2023/04/09 09:26:17;;;;;;;0.93;0.50;;;18.20;41.20;;;;;;6315609;22;20138;-82
2023/04/09 09:28:45;;;;;;;4.72;0.80;;;18.20;41.10;;;;;;6315188;22;20158;-81
2023/04/09 09:31:11;;;;;;;1.67;0.40;;;18.20;40.80;;;;;;6315723;22;20131;-81
2023/04/09 09:33:38;;;;;;;1.73;0.60;;;18.30;40.90;;;;;;6315314;22;20136;-81
2023/04/09 09:36:03;;;;;;;0.68;0.40;;;18.40;40.50;;;;;;6342087;22;20556;-81
2023/04/09 09:38:29;;;;;;;0.60;0.60;;;18.30;40.80;;;;;;6263984;22;20161;-82
2023/04/09 09:40:55;;;;;;;2.70;0.60;;;18.30;40.70;;;;;;6342789;22;20146;-81
2023/04/09 09:43:21;;;;;;;1.25;0.60;;;18.30;40.70;;;;;;6341188;22;20222;-81
2023/04/09 09:45:47;;;;;;;2.72;0.60;;;18.30;40.80;;;;;;6313727;22;20226;-82
2023/04/09 09:48:14;;;;;;;0.50;0.50;;;18.30;40.90;;;;;;6313069;22;20171;-81
2023/04/09 09:50:41;;;;;;;1.13;0.50;;;18.20;40.60;;;;;;6340933;22;20127;-81
2023/04/09 09:53:08;;;;;;;1.30;0.50;;;18.30;40.50;;;;;;6340189;22;20470;-81
2023/04/09 09:55:37;;;;;;;1.85;0.40;;;18.30;40.50;;;;;;6340613;22;20142;-81
2023/04/09 09:58:21;;;;;;;5.97;1.10;;;18.40;40.70;;;;;;6312901;22;20140;-81
2023/04/09 10:00:50;;;;;;;3.45;0.60;;;18.40;40.30;;;;;;6340164;22;20212;-81
2023/04/09 10:03:26;;;;;;;2.10;0.60;;;18.40;40.70;;;;;;6313121;22;20213;-81
2023/04/09 10:05:52;;;;;;;2.80;0.50;;;18.40;40.30;;;;;;6312320;22;20210;-80
2023/04/09 10:08:20;;;;;;;1.55;0.65;;;18.40;40.60;;;;;;6339748;22;20559;-81
2023/04/09 10:10:47;;;;;;;0.80;0.60;;;18.40;40.10;;;;;;6340390;22;20139;-81
2023/04/09 10:13:15;;;;;;;2.70;0.60;;;18.40;40.10;;;;;;6339665;22;20190;-82
2023/04/09 10:15:43;;;;;;;2.17;0.60;;;18.50;40.40;;;;;;6312563;22;20198;-81
2023/04/09 10:18:09;;;;;;;2.22;0.60;;;18.40;40.30;;;;;;6340201;22;20174;-81
2023/04/09 10:20:40;;;;;;;1.33;0.52;;;18.30;40.40;;;;;;6286431;22;20579;-82
2023/04/09 10:23:18;;;;;;;0.82;0.55;;;18.40;40.20;;;;;;6312970;22;20654;-80
2023/04/09 10:25:44;;;;;;;0.40;0.40;;;18.40;40.00;;;;;;6340260;22;20132;-81
2023/04/09 10:28:17;;;;;;;0.40;0.40;;;18.40;40.60;;;;;;6312257;22;20182;-81
2023/04/09 10:30:43;;;;;;;1.20;0.50;;;18.40;40.00;;;;;;6312373;22;20498;-81
2023/04/09 10:33:12;;;;;;;1.02;0.50;;;18.40;40.30;;;;;;6340169;22;20222;-81
2023/04/09 10:35:38;;;;;;;5.00;0.65;;;18.40;40.20;;;;;;6312637;22;20440;-81
2023/04/09 10:38:09;;;;;;;1.95;0.70;;;18.40;40.30;;;;;;6312310;22;20681;-81
2023/04/09 10:40:48;;;;;;;0.70;0.50;;;18.40;40.10;;;;;;6312859;22;20162;-82
2023/04/09 10:43:18;;;;;;;0.50;0.50;;;18.40;40.00;;;;;;6339991;22;20131;-81
2023/04/09 10:45:44;;;;;;;3.33;0.40;;;18.40;40.10;;;;;;6339695;22;20464;-80
2023/04/09 10:48:12;;;;;;;2.20;0.70;;;18.40;40.10;;;;;;6312238;22;20166;-82
2023/04/09 10:50:38;;;;;;;1.92;0.60;;;18.40;40.30;;;;;;6339557;22;20134;-81
2023/04/09 10:53:05;;;;;;;0.75;0.40;;;18.40;40.10;;;;;;6312342;22;20576;-81
2023/04/09 10:55:39;;;;;;;1.13;0.47;;;18.40;40.60;;;;;;6311889;22;20128;-81
2023/04/09 10:58:05;;;;;;;0.93;0.50;;;18.40;40.10;;;;;;6312241;22;20222;-81
2023/04/09 11:00:35;;;;;;;1.38;0.55;;;18.40;40.00;;;;;;6312186;22;20129;-81
2023/04/09 11:03:20;;;;;;;0.32;0.32;;;18.40;40.10;;;;;;6312280;22;20567;-81
2023/04/09 11:05:51;;;;;;;1.02;0.57;;;18.40;39.80;;;;;;6339630;22;20211;-82
2023/04/09 11:08:17;;;;;;;0.43;0.43;;;18.40;40.00;;;;;;6339762;22;20241;-80
2023/04/09 11:10:44;;;;;;;2.25;0.50;;;18.40;40.00;;;;;;6339837;22;20566;-81
2023/04/09 11:13:12;;;;;;;3.83;0.60;;;18.50;40.10;;;;;;6311543;22;20186;-81
2023/04/09 11:15:38;;;;;;;0.45;0.40;;;18.40;40.20;;;;;;6339381;22;20146;-80
2023/04/09 11:18:12;;;;;;;0.55;0.50;;;18.40;40.00;;;;;;6339584;22;20176;-81
2023/04/09 11:20:38;;;;;;;0.50;0.40;;;18.40;40.00;;;;;;6313961;22;20206;-81
2023/04/09 11:23:04;;;;;;;0.70;0.50;;;18.40;39.60;;;;;;6339305;22;20512;-81
2023/04/09 11:25:31;;;;;;;0.50;0.50;;;18.40;39.80;;;;;;6339269;22;20136;-81
2023/04/09 11:27:57;;;;;;;1.15;0.40;;;18.40;40.20;;;;;;6311674;22;20194;-81
2023/04/09 11:30:24;;;;;;;0.68;0.50;;;18.40;40.30;;;;;;6311632;22;20176;-81
2023/04/09 11:32:50;;;;;;;0.63;0.57;;;18.40;40.00;;;;;;6312250;22;20174;-81
2023/04/09 11:35:17;;;;;;;0.50;0.43;;;18.40;40.10;;;;;;6312003;22;20216;-80
2023/04/09 11:37:43;;;;;;;1.27;0.40;;;18.40;39.80;;;;;;6312397;22;20468;-82
2023/04/09 11:40:21;;;;;;;0.75;0.57;;;18.40;40.00;;;;;;6339943;22;20127;-81
2023/04/09 11:42:50;;;;;;;2.47;0.52;;;18.40;40.00;;;;;;6340967;22;20229;-81
2023/04/09 11:45:16;;;;;;;1.17;0.52;;;18.40;39.70;;;;;;6312380;22;20131;-80
2023/04/09 11:47:42;;;;;;;2.05;0.50;;;18.50;39.80;;;;;;6312131;22;20132;-80
2023/04/09 11:50:09;;;;;;;0.52;0.40;;;18.50;39.90;;;;;;6340039;22;20181;-82
2023/04/09 11:52:35;;;;;;;0.50;0.50;;;18.40;39.80;;;;;;6311606;22;20159;-81
2023/04/09 11:55:02;;;;;;;2.03;0.50;;;18.50;39.70;;;;;;6287300;22;20132;-81
2023/04/09 11:57:37;;;;;;;0.40;0.40;;;18.50;39.80;;;;;;6263167;22;20477;-81
2023/04/09 12:00:11;;;;;;;0.50;0.50;;;18.40;39.90;;;;;;6340540;22;20158;-82
2023/04/09 12:02:45;;;;;;;0.30;0.30;;;18.50;39.90;;;;;;6312138;22;20142;-81
2023/04/09 12:05:12;;;;;;;0.70;0.50;;;18.40;39.90;;;;;;6311869;22;20140;-81
2023/04/09 12:07:38;;;;;;;0.40;0.40;;;18.40;40.20;;;;;;6312037;22;20190;-81
2023/04/09 12:10:06;;;;;;;0.30;0.30;;;18.40;39.70;;;;;;6339123;22;20512;-81
2023/04/09 12:12:42;;;;;;;0.73;0.50;;;18.40;39.60;;;;;;6311222;22;20190;-81
2023/04/09 12:15:11;;;;;;;0.55;0.50;;;18.40;40.00;;;;;;6286298;22;20146;-82
2023/04/09 12:17:37;;;;;;;0.30;0.30;;;18.40;40.20;;;;;;6338944;22;20506;-82
2023/04/09 12:20:03;;;;;;;0.40;0.40;;;18.40;40.20;;;;;;6311407;22;20132;-82
2023/04/09 12:22:29;;;;;;;0.40;0.40;;;18.30;39.90;;;;;;6285601;22;20570;-82
2023/04/09 12:24:55;;;;;;;0.30;0.30;;;18.40;39.70;;;;;;6311603;22;20155;-82
2023/04/09 12:27:20;;;;;;;0.65;0.50;;;18.40;39.70;;;;;;6339114;22;20131;-81
2023/04/09 12:29:46;;;;;;;0.40;0.40;;;18.40;39.70;;;;;;6338723;22;20174;-80
2023/04/09 12:32:12;;;;;;;0.57;0.40;;;18.40;40.00;;;;;;6339118;22;20159;-80
2023/04/09 12:34:38;;;;;;;0.30;0.30;;;18.40;39.60;;;;;;6339400;22;20627;-80
2023/04/09 12:37:03;;;;;;;0.65;0.38;;;18.40;39.60;;;;;;6311127;22;20571;-80
2023/04/09 12:39:29;;;;;;;0.50;0.50;;;18.40;39.60;;;;;;6311278;22;20131;-80
2023/04/09 12:41:56;;;;;;;0.40;0.40;;;18.30;40.10;;;;;;6338770;22;20161;-80
2023/04/09 12:44:22;;;;;;;0.40;0.40;;;18.40;39.60;;;;;;6338801;22;20135;-80
2023/04/09 12:46:48;;;;;;;0.40;0.40;;;18.40;39.90;;;;;;6338788;22;20136;-80
2023/04/09 12:49:14;;;;;;;0.45;0.40;;;18.40;39.90;;;;;;6310897;22;20182;-81
2023/04/09 12:51:40;;;;;;;0.20;0.20;;;18.40;39.60;;;;;;6311397;22;20218;-80